createdAt,value
2018-09-22T00:01:52.243Z,2.73
2018-09-22T00:04:19.422Z,3.10
2018-09-22T00:06:46.675Z,2.87
2018-09-22T00:09:13.833Z,2.30
2018-09-22T00:11:41.040Z,2.87
2018-09-22T00:14:08.635Z,2.97
2018-09-22T00:16:35.939Z,3.50
2018-09-22T00:19:03.157Z,3.20
2018-09-22T00:21:30.380Z,3.80
2018-09-22T00:23:57.559Z,3.10
2018-09-22T00:26:24.744Z,3.53
2018-09-22T00:28:51.957Z,3.77
2018-09-22T00:31:19.189Z,3.70
2018-09-22T00:33:46.347Z,3.90
2018-09-22T00:36:13.591Z,4.30
2018-09-22T00:38:40.816Z,4.63
2018-09-22T00:41:08.014Z,4.30
2018-09-22T00:43:35.302Z,4.00
2018-09-22T00:46:02.487Z,4.13
2018-09-22T00:48:29.740Z,4.23
2018-09-22T00:50:56.992Z,4.53
2018-09-22T00:53:24.160Z,4.40
2018-09-22T00:55:51.336Z,4.20
2018-09-22T00:58:18.633Z,5.00
2018-09-22T01:00:45.790Z,4.70
2018-09-22T01:03:12.937Z,4.90
2018-09-22T01:05:40.152Z,4.60
2018-09-22T01:08:07.308Z,4.43
2018-09-22T01:10:34.567Z,4.70
2018-09-22T01:13:02.802Z,5.10
2018-09-22T01:15:29.997Z,4.50
2018-09-22T01:17:57.304Z,4.17
2018-09-22T01:20:24.544Z,4.77
2018-09-22T01:22:51.782Z,4.60
2018-09-22T01:25:18.989Z,4.57
2018-09-22T01:27:46.208Z,3.80
2018-09-22T01:30:13.376Z,4.10
2018-09-22T01:32:40.552Z,3.90
2018-09-22T01:35:07.811Z,4.27
2018-09-22T01:37:40.792Z,5.07
2018-09-22T01:40:08.023Z,4.70
2018-09-22T01:42:35.208Z,4.37
2018-09-22T01:45:02.415Z,3.77
2018-09-22T01:47:29.652Z,4.20
2018-09-22T01:49:56.812Z,4.43
2018-09-22T01:52:23.981Z,4.07
2018-09-22T01:54:51.232Z,4.43
2018-09-22T01:57:18.412Z,3.80
2018-09-22T01:59:45.624Z,4.00
2018-09-22T02:02:12.841Z,3.90
2018-09-22T02:04:50.398Z,3.53
2018-09-22T02:07:17.813Z,4.03
2018-09-22T02:09:44.987Z,3.90
2018-09-22T02:12:12.162Z,3.37
2018-09-22T02:14:39.367Z,3.50
2018-09-22T02:17:10.856Z,3.60
2018-09-22T02:19:38.025Z,3.30
2018-09-22T02:22:05.264Z,3.50
2018-09-22T02:24:32.566Z,3.47
2018-09-22T02:26:59.741Z,3.53
2018-09-22T02:29:27.551Z,3.17
2018-09-22T02:31:54.718Z,3.60
2018-09-22T02:34:27.636Z,3.67
2018-09-22T02:36:54.906Z,2.93
2018-09-22T02:39:22.062Z,3.07
2018-09-22T02:41:49.279Z,3.03
2018-09-22T02:44:16.469Z,3.30
2018-09-22T02:46:43.652Z,3.40
2018-09-22T02:49:10.954Z,3.13
2018-09-22T02:51:38.113Z,3.33
2018-09-22T02:54:05.282Z,2.87
2018-09-22T02:56:32.518Z,3.10
2018-09-22T02:58:59.743Z,3.07
2018-09-22T03:01:27.028Z,2.80
2018-09-22T03:03:54.225Z,3.00
2018-09-22T03:06:21.375Z,2.70
2018-09-22T03:08:48.569Z,2.53
2018-09-22T03:11:15.789Z,3.07
2018-09-22T03:13:43.033Z,2.70
2018-09-22T03:16:10.195Z,2.40
2018-09-22T03:18:37.423Z,2.37
2018-09-22T03:21:04.605Z,2.37
2018-09-22T03:23:31.782Z,3.03
2018-09-22T03:25:59.067Z,2.13
2018-09-22T03:28:26.232Z,2.20
2018-09-22T03:30:53.406Z,2.20
2018-09-22T03:33:20.619Z,2.00
2018-09-22T03:35:47.788Z,2.27
2018-09-22T03:38:14.953Z,2.20
2018-09-22T03:40:42.169Z,2.20
2018-09-22T03:43:09.362Z,2.13
2018-09-22T03:45:36.496Z,2.30
2018-09-22T03:48:03.750Z,2.07
2018-09-22T03:50:30.937Z,2.10
2018-09-22T03:52:58.141Z,2.40
2018-09-22T03:55:25.384Z,2.40
2018-09-22T03:57:52.553Z,2.20
2018-09-22T04:00:19.726Z,2.47
2018-09-22T04:02:46.942Z,2.17
2018-09-22T04:05:14.385Z,2.20
2018-09-22T04:07:41.546Z,1.80
2018-09-22T04:10:08.782Z,2.10
2018-09-22T04:12:37.014Z,1.77
2018-09-22T04:15:04.413Z,1.90
2018-09-22T04:17:31.616Z,2.00
2018-09-22T04:19:58.765Z,1.93
2018-09-22T04:22:25.965Z,2.20
2018-09-22T04:24:53.176Z,1.87
2018-09-22T04:27:21.429Z,1.80
2018-09-22T04:29:48.590Z,2.03
2018-09-22T04:32:15.808Z,2.13
2018-09-22T04:34:42.961Z,2.30
2018-09-22T04:37:10.160Z,1.90
2018-09-22T04:39:37.385Z,1.93
2018-09-22T04:42:04.580Z,2.07
2018-09-22T04:44:31.754Z,1.73
2018-09-22T04:46:58.974Z,1.83
2018-09-22T04:49:26.154Z,1.80
2018-09-22T04:51:54.373Z,2.07
2018-09-22T04:54:21.606Z,2.00
2018-09-22T04:56:48.856Z,1.80
2018-09-22T04:59:16.048Z,1.90
2018-09-22T05:01:43.242Z,2.00
2018-09-22T05:04:10.554Z,2.43
2018-09-22T05:06:37.701Z,2.23
2018-09-22T05:09:07.570Z,2.70
2018-09-22T05:11:34.746Z,2.00
2018-09-22T05:14:02.094Z,2.10
2018-09-22T05:16:29.349Z,2.43
2018-09-22T05:18:56.614Z,2.10
2018-09-22T05:21:23.764Z,2.30
2018-09-22T05:23:50.980Z,2.07
2018-09-22T05:26:18.133Z,2.53
2018-09-22T05:28:45.368Z,2.20
2018-09-22T05:31:12.596Z,2.40
2018-09-22T05:33:39.756Z,2.40
2018-09-22T05:36:06.951Z,2.37
2018-09-22T05:38:34.168Z,2.00
2018-09-22T05:41:01.429Z,2.50
2018-09-22T05:43:28.617Z,2.60
2018-09-22T05:45:55.895Z,1.97
2018-09-22T05:48:23.083Z,2.40
2018-09-22T05:50:50.259Z,2.23
2018-09-22T05:53:17.460Z,2.07
2018-09-22T05:55:44.640Z,2.13
2018-09-22T05:58:11.847Z,2.13
2018-09-22T06:00:39.769Z,2.20
2018-09-22T06:03:08.197Z,2.20
2018-09-22T06:05:35.488Z,2.60
2018-09-22T06:08:02.824Z,2.80
2018-09-22T06:10:30.061Z,2.73
2018-09-22T06:12:57.245Z,2.30
2018-09-22T06:15:25.597Z,2.33
2018-09-22T06:17:52.977Z,2.40
2018-09-22T06:20:20.732Z,2.03
2018-09-22T06:22:48.062Z,2.43
2018-09-22T06:25:15.230Z,2.87
2018-09-22T06:27:42.468Z,2.50
2018-09-22T06:30:09.761Z,2.27
2018-09-22T06:32:37.010Z,2.40
2018-09-22T06:35:04.237Z,1.60
2018-09-22T06:37:32.289Z,2.27
2018-09-22T06:40:00.112Z,2.07
2018-09-22T06:42:27.742Z,1.90
2018-09-22T06:44:55.500Z,2.20
2018-09-22T06:47:23.757Z,2.23
2018-09-22T06:49:51.729Z,2.60
2018-09-22T06:52:18.965Z,2.47
2018-09-22T06:54:46.486Z,2.50
2018-09-22T06:57:13.941Z,2.07
2018-09-22T06:59:41.164Z,2.10
2018-09-22T07:02:08.758Z,2.33
2018-09-22T07:04:39.124Z,1.90
2018-09-22T07:07:07.615Z,2.10
2018-09-22T07:09:34.793Z,2.43
2018-09-22T07:12:03.690Z,2.23
2018-09-22T07:14:30.979Z,2.27
2018-09-22T07:16:58.390Z,2.20
2018-09-22T07:19:26.332Z,2.00
2018-09-22T07:21:59.353Z,2.57
2018-09-22T07:24:26.547Z,2.07
2018-09-22T07:26:53.741Z,1.80
2018-09-22T07:29:20.948Z,2.03
2018-09-22T07:31:48.297Z,2.37
2018-09-22T07:34:16.473Z,2.00
2018-09-22T07:36:43.821Z,2.00
2018-09-22T07:39:11.729Z,1.93
2018-09-22T07:41:39.005Z,1.70
2018-09-22T07:44:06.324Z,2.27
2018-09-22T07:46:33.540Z,1.90
2018-09-22T07:49:01.577Z,2.03
2018-09-22T07:51:28.794Z,2.10
2018-09-22T07:53:56.012Z,1.80
2018-09-22T07:56:23.265Z,1.87
2018-09-22T07:58:50.575Z,2.00
2018-09-22T08:01:17.778Z,1.80
2018-09-22T08:03:44.900Z,2.20
2018-09-22T08:06:13.212Z,1.87
2018-09-22T08:08:40.460Z,1.73
2018-09-22T08:11:10.406Z,1.83
2018-09-22T08:13:37.646Z,1.70
2018-09-22T08:16:06.150Z,2.67
2018-09-22T08:18:33.333Z,1.87
2018-09-22T08:21:00.528Z,2.20
2018-09-22T08:23:28.803Z,2.80
2018-09-22T08:25:56.169Z,2.20
2018-09-22T08:28:23.484Z,2.07
2018-09-22T08:30:51.737Z,2.10
2018-09-22T08:33:18.923Z,2.00
2018-09-22T08:35:46.403Z,2.07
2018-09-22T08:38:13.605Z,2.13
2018-09-22T08:40:40.777Z,2.30
2018-09-22T08:43:07.994Z,2.33
2018-09-22T08:45:35.127Z,1.80
2018-09-22T08:48:02.308Z,1.70
2018-09-22T08:50:29.535Z,2.00
2018-09-22T08:52:56.698Z,1.90
2018-09-22T08:55:24.387Z,1.90
2018-09-22T08:57:51.705Z,1.63
2018-09-22T09:00:19.130Z,1.70
2018-09-22T09:02:46.541Z,2.20
2018-09-22T09:05:13.840Z,2.17
2018-09-22T09:07:41.042Z,1.83
2018-09-22T09:10:08.212Z,1.70
2018-09-22T09:12:35.468Z,1.83
2018-09-22T09:15:03.035Z,1.90
2018-09-22T09:17:31.577Z,2.00
2018-09-22T09:19:58.890Z,1.53
2018-09-22T09:22:34.426Z,2.00
2018-09-22T09:25:01.601Z,1.60
2018-09-22T09:27:29.046Z,1.77
2018-09-22T09:29:56.162Z,1.53
2018-09-22T09:32:23.727Z,1.90
2018-09-22T09:34:51.043Z,1.30
2018-09-22T09:37:18.430Z,1.60
2018-09-22T09:39:45.639Z,1.40
2018-09-22T09:42:12.841Z,1.70
2018-09-22T09:44:40.057Z,1.53
2018-09-22T09:47:07.278Z,1.60
2018-09-22T09:49:34.434Z,1.63
2018-09-22T09:52:01.991Z,2.00
2018-09-22T09:54:33.151Z,1.50
2018-09-22T09:57:00.358Z,2.13
2018-09-22T09:59:27.617Z,1.90
2018-09-22T10:01:54.809Z,2.37
2018-09-22T10:04:21.980Z,1.40
2018-09-22T10:06:50.178Z,1.40
2018-09-22T10:09:17.404Z,1.57
2018-09-22T10:11:44.639Z,2.00
2018-09-22T10:14:11.877Z,1.80
2018-09-22T10:16:39.089Z,1.80
2018-09-22T10:19:06.252Z,1.83
2018-09-22T10:21:33.405Z,1.77
2018-09-22T10:24:00.600Z,1.50
2018-09-22T10:26:27.778Z,1.87
2018-09-22T10:28:54.964Z,1.60
2018-09-22T10:31:22.158Z,1.80
2018-09-22T10:33:49.309Z,1.57
2018-09-22T10:36:17.013Z,1.67
2018-09-22T10:38:44.245Z,1.77
2018-09-22T10:41:11.450Z,1.70
2018-09-22T10:43:38.643Z,1.60
2018-09-22T10:46:05.868Z,1.77
2018-09-22T10:48:33.099Z,1.70
2018-09-22T10:51:01.107Z,1.90
2018-09-22T10:53:28.354Z,1.90
2018-09-22T10:55:55.493Z,1.90
2018-09-22T10:58:22.669Z,1.70
2018-09-22T11:00:49.940Z,2.10
2018-09-22T11:03:17.133Z,2.33
2018-09-22T11:05:44.238Z,2.50
2018-09-22T11:08:11.453Z,2.10
2018-09-22T11:10:38.569Z,1.90
2018-09-22T11:13:05.781Z,2.20
2018-09-22T11:15:32.979Z,2.10
2018-09-22T11:18:00.589Z,2.00
2018-09-22T11:20:27.721Z,2.00
2018-09-22T11:22:54.917Z,2.37
2018-09-22T11:25:22.137Z,2.17
2018-09-22T11:27:49.688Z,1.90
2018-09-22T11:30:16.877Z,2.10
2018-09-22T11:32:44.062Z,1.90
2018-09-22T11:35:14.518Z,1.93
2018-09-22T11:37:41.815Z,1.70
2018-09-22T11:40:08.980Z,2.03
2018-09-22T11:42:36.097Z,1.87
2018-09-22T11:45:03.334Z,1.80
2018-09-22T11:47:30.477Z,1.70
2018-09-22T11:49:57.722Z,1.67
2018-09-22T11:52:24.929Z,2.30
2018-09-22T11:54:52.100Z,2.00
2018-09-22T11:57:19.250Z,2.10
2018-09-22T11:59:46.432Z,2.07
2018-09-22T12:02:13.603Z,1.80
2018-09-22T12:04:41.840Z,2.00
2018-09-22T12:07:09.100Z,2.20
2018-09-22T12:09:36.269Z,1.80
2018-09-22T12:12:06.848Z,1.90
2018-09-22T12:14:34.185Z,2.00
2018-09-22T12:17:01.369Z,2.30
2018-09-22T12:19:28.511Z,2.10
2018-09-22T12:21:55.706Z,2.40
2018-09-22T12:24:22.849Z,1.43
2018-09-22T12:26:50.062Z,1.70
2018-09-22T12:29:17.277Z,1.80
2018-09-22T12:31:44.420Z,1.93
2018-09-22T12:34:11.590Z,1.90
2018-09-22T12:36:38.813Z,1.87
2018-09-22T12:39:08.186Z,2.17
2018-09-22T12:41:35.728Z,2.00
2018-09-22T12:44:03.050Z,1.63
2018-09-22T12:46:30.197Z,1.60
2018-09-22T12:48:57.352Z,1.97
2018-09-22T12:51:24.552Z,1.87
2018-09-22T12:53:51.702Z,1.90
2018-09-22T12:56:18.878Z,1.80
2018-09-22T12:58:46.080Z,1.70
2018-09-22T13:01:13.326Z,1.37
2018-09-22T13:03:40.489Z,1.50
2018-09-22T13:06:07.714Z,1.80
2018-09-22T13:08:34.857Z,1.90
2018-09-22T13:11:02.023Z,1.90
2018-09-22T13:13:29.296Z,1.73
2018-09-22T13:15:56.698Z,1.60
2018-09-22T13:18:23.870Z,1.80
2018-09-22T13:20:51.133Z,1.63
2018-09-22T13:23:18.301Z,1.80
2018-09-22T13:25:45.456Z,1.87
2018-09-22T13:28:12.690Z,1.67
2018-09-22T13:30:39.840Z,1.90
2018-09-22T13:33:07.037Z,1.97
2018-09-22T13:35:34.228Z,1.70
2018-09-22T13:38:01.549Z,1.90
2018-09-22T13:40:28.705Z,1.70
2018-09-22T13:42:55.896Z,1.83
2018-09-22T13:45:23.112Z,1.60
2018-09-22T13:47:50.332Z,1.50
2018-09-22T13:50:17.529Z,1.90
2018-09-22T13:52:44.673Z,1.87
2018-09-22T13:55:11.813Z,1.70
2018-09-22T13:57:39.020Z,1.40
2018-09-22T14:00:06.179Z,1.90
2018-09-22T14:02:33.317Z,1.50
2018-09-22T14:05:00.525Z,1.83
2018-09-22T14:07:27.672Z,2.43
2018-09-22T14:09:54.809Z,1.80
2018-09-22T14:12:22.030Z,1.70
2018-09-22T14:14:49.160Z,1.40
2018-09-22T14:17:16.366Z,1.60
2018-09-22T14:19:43.564Z,1.70
2018-09-22T14:22:10.731Z,1.60
2018-09-22T14:24:37.867Z,1.80
2018-09-22T14:27:05.129Z,1.53
2018-09-22T14:29:32.285Z,1.53
2018-09-22T14:31:59.424Z,1.73
2018-09-22T14:34:26.609Z,1.40
2018-09-22T14:36:53.752Z,1.33
2018-09-22T14:39:20.901Z,1.40
2018-09-22T14:41:48.085Z,1.40
2018-09-22T14:44:15.353Z,1.53
2018-09-22T14:46:42.498Z,1.67
2018-09-22T14:49:09.730Z,1.30
2018-09-22T14:51:36.869Z,1.70
2018-09-22T14:54:04.028Z,1.70
2018-09-22T14:56:31.305Z,1.20
2018-09-22T14:58:58.469Z,1.50
2018-09-22T15:01:25.634Z,1.50
2018-09-22T15:03:52.809Z,1.60
2018-09-22T15:06:19.970Z,1.63
2018-09-22T15:08:47.145Z,1.50
2018-09-22T15:11:14.341Z,1.43
2018-09-22T15:13:41.477Z,1.27
2018-09-22T15:16:08.680Z,1.50
2018-09-22T15:18:36.009Z,1.60
2018-09-22T15:21:03.145Z,1.47
2018-09-22T15:23:30.361Z,1.77
2018-09-22T15:25:57.553Z,1.53
2018-09-22T15:28:24.772Z,1.50
2018-09-22T15:30:51.973Z,1.80
2018-09-22T15:33:19.190Z,1.60
2018-09-22T15:35:46.406Z,1.77
2018-09-22T15:38:13.604Z,1.90
2018-09-22T15:40:40.856Z,1.70
2018-09-22T15:43:08.202Z,1.90
2018-09-22T15:45:39.602Z,1.60
2018-09-22T15:48:06.708Z,1.10
2018-09-22T15:50:33.906Z,1.20
2018-09-22T15:53:01.148Z,1.37
2018-09-22T15:55:28.337Z,1.50
2018-09-22T15:57:55.500Z,1.47
2018-09-22T16:00:22.680Z,1.30
2018-09-22T16:02:49.891Z,1.60
2018-09-22T16:05:17.065Z,1.30
2018-09-22T16:07:44.224Z,1.57
2018-09-22T16:10:11.465Z,1.10
2018-09-22T16:12:38.597Z,1.73
2018-09-22T16:15:05.805Z,1.50
2018-09-22T16:17:33.009Z,1.50
2018-09-22T16:20:00.245Z,1.70
2018-09-22T16:22:27.369Z,1.47
2018-09-22T16:24:54.650Z,1.77
2018-09-22T16:27:21.846Z,1.73
2018-09-22T16:29:48.981Z,1.40
2018-09-22T16:32:17.184Z,1.57
2018-09-22T16:34:44.357Z,1.70
2018-09-22T16:37:11.549Z,1.77
2018-09-22T16:39:38.741Z,1.60
2018-09-22T16:42:05.997Z,2.07
2018-09-22T16:44:33.216Z,1.60
2018-09-22T16:47:00.413Z,1.70
2018-09-22T16:49:27.706Z,1.50
2018-09-22T16:51:54.822Z,1.43
2018-09-22T16:54:22.023Z,1.67
2018-09-22T16:56:49.239Z,1.70
2018-09-22T16:59:16.397Z,1.27
2018-09-22T17:01:43.575Z,1.73
2018-09-22T17:04:10.757Z,1.90
2018-09-22T17:06:37.876Z,1.57
2018-09-22T17:09:06.641Z,1.70
2018-09-22T17:11:33.765Z,1.80
2018-09-22T17:14:00.900Z,1.60
2018-09-22T17:16:28.134Z,1.53
2018-09-22T17:18:55.310Z,1.67
2018-09-22T17:21:22.851Z,1.70
2018-09-22T17:23:50.044Z,1.60
2018-09-22T17:26:17.182Z,1.40
2018-09-22T17:28:44.335Z,2.23
2018-09-22T17:31:11.577Z,1.70
2018-09-22T17:33:38.721Z,1.60
2018-09-22T17:36:06.258Z,1.80
2018-09-22T17:38:33.441Z,1.70
2018-09-22T17:41:00.624Z,1.47
2018-09-22T17:43:27.745Z,1.63
2018-09-22T17:45:55.086Z,1.70
2018-09-22T17:48:23.205Z,1.50
2018-09-22T17:50:50.371Z,1.83
2018-09-22T17:53:17.754Z,1.60
2018-09-22T17:55:45.047Z,1.80
2018-09-22T17:58:24.898Z,1.50
2018-09-22T18:00:52.131Z,1.90
2018-09-22T18:03:19.300Z,1.60
2018-09-22T18:05:47.041Z,1.70
2018-09-22T18:08:14.224Z,1.80
2018-09-22T18:10:41.440Z,2.00
2018-09-22T18:13:08.693Z,1.90
2018-09-22T18:15:35.853Z,1.80
2018-09-22T18:18:03.097Z,1.60
2018-09-22T18:20:30.372Z,1.70
2018-09-22T18:22:57.601Z,1.80
2018-09-22T18:25:24.896Z,1.87
2018-09-22T18:27:52.080Z,1.83
2018-09-22T18:30:19.276Z,1.60
2018-09-22T18:32:46.460Z,2.17
2018-09-22T18:35:13.682Z,1.97
2018-09-22T18:37:40.825Z,2.00
2018-09-22T18:40:08.002Z,1.73
2018-09-22T18:42:35.246Z,1.83
2018-09-22T18:45:03.147Z,2.23
2018-09-22T18:47:30.649Z,1.83
2018-09-22T18:49:57.878Z,2.30
2018-09-22T18:52:25.170Z,1.70
2018-09-22T18:54:52.408Z,2.00
2018-09-22T18:57:19.804Z,2.13
2018-09-22T18:59:46.965Z,2.17
2018-09-22T19:02:14.134Z,1.97
2018-09-22T19:04:41.353Z,2.07
2018-09-22T19:07:08.514Z,2.40
2018-09-22T19:09:35.664Z,2.67
2018-09-22T19:12:03.025Z,2.07
2018-09-22T19:14:33.557Z,2.60
2018-09-22T19:17:06.052Z,2.20
2018-09-22T19:19:36.944Z,2.83
2018-09-22T19:22:10.105Z,2.10
2018-09-22T19:24:41.815Z,2.80
2018-09-22T19:27:12.481Z,2.60
2018-09-22T19:29:44.514Z,2.10
2018-09-22T19:32:15.092Z,2.37
2018-09-22T19:34:45.550Z,2.17
2018-09-22T19:37:17.678Z,1.90
2018-09-22T19:39:52.241Z,2.20
2018-09-22T19:42:32.304Z,2.00
2018-09-22T19:45:03.562Z,1.80
2018-09-22T19:48:36.745Z,1.80
2018-09-22T19:51:08.580Z,2.00
2018-09-22T19:53:36.433Z,2.33
2018-09-22T19:56:03.608Z,2.20
2018-09-22T19:58:30.763Z,2.53
2018-09-22T20:00:57.966Z,2.87
2018-09-22T20:03:25.090Z,2.53
2018-09-22T20:05:52.272Z,2.60
2018-09-22T20:08:19.449Z,2.90
2018-09-22T20:10:46.579Z,2.60
2018-09-22T20:13:13.701Z,3.07
2018-09-22T20:15:41.305Z,2.50
2018-09-22T20:18:08.438Z,3.10
2018-09-22T20:20:35.604Z,3.20
2018-09-22T20:23:02.784Z,3.90
2018-09-22T20:25:29.905Z,3.67
2018-09-22T20:27:57.013Z,3.27
2018-09-22T20:30:24.280Z,4.03
2018-09-22T20:32:51.473Z,3.33
2018-09-22T20:35:18.649Z,3.83
2018-09-22T20:37:45.819Z,3.63
2018-09-22T20:40:12.932Z,4.20
2018-09-22T20:42:40.063Z,4.40
2018-09-22T20:45:07.240Z,5.00
2018-09-22T20:47:34.352Z,5.40
2018-09-22T20:50:01.507Z,4.40
2018-09-22T20:52:28.665Z,4.43
2018-09-22T20:54:55.836Z,4.07
2018-09-22T20:57:22.970Z,4.87
2018-09-22T20:59:50.121Z,4.20
2018-09-22T21:02:17.241Z,4.17
2018-09-22T21:04:44.378Z,4.33
2018-09-22T21:07:11.544Z,3.90
2018-09-22T21:09:38.650Z,3.60
2018-09-22T21:12:05.767Z,4.17
2018-09-22T21:14:32.945Z,4.80
2018-09-22T21:17:00.065Z,4.70
2018-09-22T21:19:27.196Z,3.90
2018-09-22T21:21:54.380Z,4.27
2018-09-22T21:24:21.523Z,4.60
2018-09-22T21:26:48.647Z,4.40
2018-09-22T21:29:15.836Z,4.23
2018-09-22T21:31:42.941Z,4.60
2018-09-22T21:34:10.145Z,4.43
2018-09-22T21:36:37.316Z,4.83
2018-09-22T21:39:07.296Z,4.37
2018-09-22T21:41:34.420Z,4.27
2018-09-22T21:44:01.589Z,4.53
2018-09-22T21:46:28.741Z,4.97
2018-09-22T21:48:55.853Z,4.97
2018-09-22T21:51:23.001Z,4.47
2018-09-22T21:53:50.113Z,4.30
2018-09-22T21:56:17.217Z,5.07
2018-09-22T21:58:44.364Z,3.87
2018-09-22T22:01:17.256Z,4.20
2018-09-22T22:03:44.476Z,4.20
2018-09-22T22:06:11.769Z,4.23
2018-09-22T22:08:39.263Z,4.30
2018-09-22T22:11:07.694Z,4.80
2018-09-22T22:13:35.525Z,4.80
2018-09-22T22:16:03.099Z,4.10
2018-09-22T22:18:30.571Z,4.47
2018-09-22T22:20:59.312Z,4.30
2018-09-22T22:23:26.446Z,4.33
2018-09-22T22:25:55.001Z,4.20
2018-09-22T22:28:22.804Z,3.77
2018-09-22T22:30:50.914Z,4.53
2018-09-22T22:33:18.685Z,4.13
2018-09-22T22:35:46.635Z,4.53
2018-09-22T22:38:14.612Z,4.67
2018-09-22T22:40:42.294Z,4.80
2018-09-22T22:43:09.856Z,4.60
2018-09-22T22:45:37.786Z,4.67
2018-09-22T22:48:05.866Z,5.20
2018-09-22T22:50:33.145Z,4.97
2018-09-22T22:53:00.987Z,5.03
2018-09-22T22:55:28.152Z,4.97
2018-09-22T22:57:55.252Z,5.37
2018-09-22T23:00:22.538Z,5.80
2018-09-22T23:02:49.734Z,5.67
2018-09-22T23:05:16.864Z,6.03
2018-09-22T23:07:43.944Z,6.40
2018-09-22T23:10:11.097Z,5.57
2018-09-22T23:12:38.249Z,5.40
2018-09-22T23:15:05.477Z,5.63
2018-09-22T23:17:32.621Z,5.60
2018-09-22T23:19:59.716Z,5.30
2018-09-22T23:22:26.813Z,4.73
2018-09-22T23:24:53.954Z,6.07
2018-09-22T23:27:21.083Z,5.30
2018-09-22T23:29:48.192Z,5.60
2018-09-22T23:32:15.327Z,5.93
2018-09-22T23:34:42.420Z,5.30
2018-09-22T23:37:09.513Z,5.40
2018-09-22T23:39:36.676Z,5.43
2018-09-22T23:42:03.811Z,5.17
2018-09-22T23:44:30.951Z,5.53
2018-09-22T23:46:58.137Z,6.00
2018-09-22T23:49:25.289Z,6.53
2018-09-22T23:51:52.449Z,6.17
2018-09-22T23:54:19.597Z,6.20
2018-09-22T23:56:46.711Z,5.80
2018-09-22T23:59:13.805Z,5.77
